Terminal Aerodrome Forecast
Issued by NWS

Home | Current Version | Previous Version | Text Only | Print | Product List | Glossary On
Versions: 1 2 3 4 5 6 7 8 9 10 11 12 13 14 15 16 17 18 19 20 21 22 23 24 25 26 27
000
FTUS42 KCAE 161737
TAFCUB
TAF
KCUB 161737Z 1618/1718 10004KT P6SM SCT006 BKN012
      TEMPO 1618/1620 OVC006
     FM162000 10005KT P6SM SCT012 BKN025
     FM170200 VRB04KT 3SM BR BKN012
     FM170600 VRB04KT 1SM BR OVC005
     FM171500 20005KT P6SM SCT005 BKN012=

USA.gov is the U.S. government's official web portal to all federal, state and local government web resources and services.